sensor_id;sensor_type;location;lat;lon;timestamp;P1;durP1;ratioP1;P2;durP2;ratioP2
37411;SDS011;23278;52.110;6.050;2024-02-16T00:00:18;4.03;;;2.08;;
37411;SDS011;23278;52.110;6.050;2024-02-16T00:02:44;4.80;;;1.88;;
37411;SDS011;23278;52.110;6.050;2024-02-16T00:05:11;5.32;;;1.80;;
37411;SDS011;23278;52.110;6.050;2024-02-16T00:07:37;2.55;;;1.75;;
37411;SDS011;23278;52.110;6.050;2024-02-16T00:10:04;5.32;;;1.48;;
37411;SDS011;23278;52.110;6.050;2024-02-16T00:12:32;5.93;;;1.98;;
37411;SDS011;23278;52.110;6.050;2024-02-16T00:14:59;5.72;;;1.60;;
37411;SDS011;23278;52.110;6.050;2024-02-16T00:17:25;2.47;;;1.50;;
37411;SDS011;23278;52.110;6.050;2024-02-16T00:19:55;4.07;;;1.48;;
37411;SDS011;23278;52.110;6.050;2024-02-16T00:22:21;3.75;;;1.75;;
37411;SDS011;23278;52.110;6.050;2024-02-16T00:24:47;3.30;;;1.33;;
37411;SDS011;23278;52.110;6.050;2024-02-16T00:27:15;4.38;;;1.48;;
37411;SDS011;23278;52.110;6.050;2024-02-16T00:29:42;4.03;;;1.92;;
37411;SDS011;23278;52.110;6.050;2024-02-16T00:32:08;5.07;;;1.85;;
37411;SDS011;23278;52.110;6.050;2024-02-16T00:34:35;2.92;;;1.98;;
37411;SDS011;23278;52.110;6.050;2024-02-16T00:37:02;7.53;;;1.95;;
37411;SDS011;23278;52.110;6.050;2024-02-16T00:39:30;4.00;;;2.15;;
37411;SDS011;23278;52.110;6.050;2024-02-16T00:41:56;3.60;;;1.88;;
37411;SDS011;23278;52.110;6.050;2024-02-16T00:44:22;5.07;;;2.05;;
37411;SDS011;23278;52.110;6.050;2024-02-16T00:46:47;3.92;;;1.65;;
37411;SDS011;23278;52.110;6.050;2024-02-16T00:49:13;4.05;;;1.48;;
37411;SDS011;23278;52.110;6.050;2024-02-16T00:51:40;2.40;;;1.25;;
37411;SDS011;23278;52.110;6.050;2024-02-16T00:54:06;2.97;;;1.25;;
37411;SDS011;23278;52.110;6.050;2024-02-16T00:56:32;3.88;;;1.58;;
37411;SDS011;23278;52.110;6.050;2024-02-16T00:58:58;3.78;;;1.42;;
37411;SDS011;23278;52.110;6.050;2024-02-16T01:01:24;4.20;;;1.48;;
37411;SDS011;23278;52.110;6.050;2024-02-16T01:03:51;3.65;;;1.67;;
37411;SDS011;23278;52.110;6.050;2024-02-16T01:06:18;2.67;;;1.42;;
37411;SDS011;23278;52.110;6.050;2024-02-16T01:08:45;6.45;;;2.35;;
37411;SDS011;23278;52.110;6.050;2024-02-16T01:11:13;4.05;;;1.90;;
37411;SDS011;23278;52.110;6.050;2024-02-16T01:13:39;3.97;;;1.30;;
37411;SDS011;23278;52.110;6.050;2024-02-16T01:16:05;4.55;;;1.80;;
37411;SDS011;23278;52.110;6.050;2024-02-16T01:18:32;3.38;;;1.48;;
37411;SDS011;23278;52.110;6.050;2024-02-16T01:20:58;4.25;;;1.52;;
37411;SDS011;23278;52.110;6.050;2024-02-16T01:23:24;4.97;;;1.55;;
37411;SDS011;23278;52.110;6.050;2024-02-16T01:25:50;8.10;;;2.03;;
37411;SDS011;23278;52.110;6.050;2024-02-16T01:28:16;2.55;;;1.48;;
37411;SDS011;23278;52.110;6.050;2024-02-16T01:30:42;3.95;;;2.03;;
37411;SDS011;23278;52.110;6.050;2024-02-16T01:33:08;3.85;;;1.52;;
37411;SDS011;23278;52.110;6.050;2024-02-16T01:35:34;4.68;;;1.73;;
37411;SDS011;23278;52.110;6.050;2024-02-16T01:38:00;5.40;;;1.70;;
37411;SDS011;23278;52.110;6.050;2024-02-16T01:40:29;4.28;;;1.55;;
37411;SDS011;23278;52.110;6.050;2024-02-16T01:42:55;2.88;;;1.48;;
37411;SDS011;23278;52.110;6.050;2024-02-16T01:45:21;7.22;;;1.67;;
37411;SDS011;23278;52.110;6.050;2024-02-16T01:47:48;3.40;;;2.17;;
37411;SDS011;23278;52.110;6.050;2024-02-16T01:50:15;16.20;;;3.53;;
37411;SDS011;23278;52.110;6.050;2024-02-16T01:52:43;3.15;;;2.00;;
37411;SDS011;23278;52.110;6.050;2024-02-16T01:55:09;4.65;;;1.50;;
37411;SDS011;23278;52.110;6.050;2024-02-16T01:57:42;7.63;;;1.83;;
37411;SDS011;23278;52.110;6.050;2024-02-16T02:00:09;2.50;;;1.50;;
37411;SDS011;23278;52.110;6.050;2024-02-16T02:02:36;3.35;;;2.05;;
37411;SDS011;23278;52.110;6.050;2024-02-16T02:05:02;6.63;;;1.58;;
37411;SDS011;23278;52.110;6.050;2024-02-16T02:07:31;4.38;;;1.45;;
37411;SDS011;23278;52.110;6.050;2024-02-16T02:09:57;4.65;;;1.63;;
37411;SDS011;23278;52.110;6.050;2024-02-16T02:12:23;4.82;;;2.25;;
37411;SDS011;23278;52.110;6.050;2024-02-16T02:14:49;5.85;;;1.92;;
37411;SDS011;23278;52.110;6.050;2024-02-16T02:17:16;2.83;;;1.38;;
37411;SDS011;23278;52.110;6.050;2024-02-16T02:19:42;3.72;;;1.50;;
37411;SDS011;23278;52.110;6.050;2024-02-16T02:22:26;3.13;;;1.45;;
37411;SDS011;23278;52.110;6.050;2024-02-16T02:24:52;2.88;;;1.63;;
37411;SDS011;23278;52.110;6.050;2024-02-16T02:27:20;3.40;;;1.00;;
37411;SDS011;23278;52.110;6.050;2024-02-16T02:29:47;6.03;;;1.67;;
37411;SDS011;23278;52.110;6.050;2024-02-16T02:32:13;2.45;;;1.00;;
37411;SDS011;23278;52.110;6.050;2024-02-16T02:34:39;2.83;;;1.55;;
37411;SDS011;23278;52.110;6.050;2024-02-16T02:37:05;3.00;;;1.65;;
37411;SDS011;23278;52.110;6.050;2024-02-16T02:39:31;2.83;;;1.20;;
37411;SDS011;23278;52.110;6.050;2024-02-16T02:41:57;5.18;;;1.42;;
37411;SDS011;23278;52.110;6.050;2024-02-16T02:44:24;6.40;;;2.03;;
37411;SDS011;23278;52.110;6.050;2024-02-16T02:46:50;3.63;;;1.20;;
37411;SDS011;23278;52.110;6.050;2024-02-16T02:49:17;4.32;;;1.50;;
37411;SDS011;23278;52.110;6.050;2024-02-16T02:51:43;4.20;;;1.48;;
37411;SDS011;23278;52.110;6.050;2024-02-16T02:54:09;3.50;;;1.15;;
37411;SDS011;23278;52.110;6.050;2024-02-16T02:56:35;2.95;;;1.20;;
37411;SDS011;23278;52.110;6.050;2024-02-16T02:59:01;5.28;;;1.45;;
37411;SDS011;23278;52.110;6.050;2024-02-16T03:01:27;2.58;;;1.17;;
37411;SDS011;23278;52.110;6.050;2024-02-16T03:03:53;3.33;;;2.03;;
37411;SDS011;23278;52.110;6.050;2024-02-16T03:06:19;4.60;;;1.58;;
37411;SDS011;23278;52.110;6.050;2024-02-16T03:08:46;3.72;;;1.25;;
37411;SDS011;23278;52.110;6.050;2024-02-16T03:11:12;3.17;;;1.45;;
37411;SDS011;23278;52.110;6.050;2024-02-16T03:13:38;3.17;;;1.60;;
37411;SDS011;23278;52.110;6.050;2024-02-16T03:16:05;7.40;;;1.60;;
37411;SDS011;23278;52.110;6.050;2024-02-16T03:18:31;2.55;;;1.17;;
37411;SDS011;23278;52.110;6.050;2024-02-16T03:20:58;2.00;;;1.30;;
37411;SDS011;23278;52.110;6.050;2024-02-16T03:23:24;2.92;;;1.20;;
37411;SDS011;23278;52.110;6.050;2024-02-16T03:25:50;2.70;;;1.30;;
37411;SDS011;23278;52.110;6.050;2024-02-16T03:28:16;2.20;;;1.27;;
37411;SDS011;23278;52.110;6.050;2024-02-16T03:30:42;3.88;;;1.67;;
37411;SDS011;23278;52.110;6.050;2024-02-16T03:33:09;2.75;;;1.48;;
37411;SDS011;23278;52.110;6.050;2024-02-16T03:35:35;3.45;;;1.73;;
37411;SDS011;23278;52.110;6.050;2024-02-16T03:38:01;2.88;;;1.08;;
37411;SDS011;23278;52.110;6.050;2024-02-16T03:40:28;2.08;;;1.20;;
37411;SDS011;23278;52.110;6.050;2024-02-16T03:42:54;4.22;;;1.23;;
37411;SDS011;23278;52.110;6.050;2024-02-16T03:45:20;3.22;;;1.48;;
37411;SDS011;23278;52.110;6.050;2024-02-16T03:47:47;2.38;;;1.63;;
37411;SDS011;23278;52.110;6.050;2024-02-16T03:50:18;3.15;;;1.38;;
37411;SDS011;23278;52.110;6.050;2024-02-16T03:52:44;3.63;;;2.03;;
37411;SDS011;23278;52.110;6.050;2024-02-16T03:55:10;2.72;;;1.65;;
37411;SDS011;23278;52.110;6.050;2024-02-16T03:57:39;4.05;;;1.17;;
37411;SDS011;23278;52.110;6.050;2024-02-16T04:00:07;2.17;;;0.98;;
37411;SDS011;23278;52.110;6.050;2024-02-16T04:02:40;2.30;;;1.50;;
37411;SDS011;23278;52.110;6.050;2024-02-16T04:05:06;3.67;;;1.30;;
37411;SDS011;23278;52.110;6.050;2024-02-16T04:07:33;2.83;;;1.73;;
37411;SDS011;23278;52.110;6.050;2024-02-16T04:09:59;3.45;;;1.20;;
37411;SDS011;23278;52.110;6.050;2024-02-16T04:12:25;2.88;;;1.50;;
37411;SDS011;23278;52.110;6.050;2024-02-16T04:14:51;2.47;;;1.23;;
37411;SDS011;23278;52.110;6.050;2024-02-16T04:17:17;2.72;;;1.15;;
37411;SDS011;23278;52.110;6.050;2024-02-16T04:19:43;3.50;;;1.10;;
37411;SDS011;23278;52.110;6.050;2024-02-16T04:22:09;2.08;;;1.25;;
37411;SDS011;23278;52.110;6.050;2024-02-16T04:24:35;3.92;;;1.45;;
37411;SDS011;23278;52.110;6.050;2024-02-16T04:27:01;4.50;;;1.48;;
37411;SDS011;23278;52.110;6.050;2024-02-16T04:29:27;2.05;;;1.10;;
37411;SDS011;23278;52.110;6.050;2024-02-16T04:31:53;3.13;;;1.30;;
37411;SDS011;23278;52.110;6.050;2024-02-16T04:34:19;2.58;;;1.75;;
37411;SDS011;23278;52.110;6.050;2024-02-16T04:36:45;2.00;;;1.45;;
37411;SDS011;23278;52.110;6.050;2024-02-16T04:39:10;2.30;;;1.35;;
37411;SDS011;23278;52.110;6.050;2024-02-16T04:41:37;3.72;;;1.30;;
37411;SDS011;23278;52.110;6.050;2024-02-16T04:44:03;4.50;;;1.55;;
37411;SDS011;23278;52.110;6.050;2024-02-16T04:46:29;2.60;;;1.30;;
37411;SDS011;23278;52.110;6.050;2024-02-16T04:48:55;2.80;;;1.80;;
37411;SDS011;23278;52.110;6.050;2024-02-16T04:51:21;2.72;;;1.83;;
37411;SDS011;23278;52.110;6.050;2024-02-16T04:53:47;2.97;;;1.45;;
37411;SDS011;23278;52.110;6.050;2024-02-16T04:56:13;1.85;;;1.40;;
37411;SDS011;23278;52.110;6.050;2024-02-16T04:58:40;2.65;;;1.40;;
37411;SDS011;23278;52.110;6.050;2024-02-16T05:01:06;4.30;;;1.60;;
37411;SDS011;23278;52.110;6.050;2024-02-16T05:03:32;3.05;;;1.25;;
37411;SDS011;23278;52.110;6.050;2024-02-16T05:05:59;3.15;;;1.65;;
37411;SDS011;23278;52.110;6.050;2024-02-16T05:08:25;4.53;;;1.40;;
37411;SDS011;23278;52.110;6.050;2024-02-16T05:10:51;5.03;;;1.13;;
37411;SDS011;23278;52.110;6.050;2024-02-16T05:13:17;2.55;;;1.98;;
37411;SDS011;23278;52.110;6.050;2024-02-16T05:15:43;1.92;;;1.27;;
37411;SDS011;23278;52.110;6.050;2024-02-16T05:18:09;2.28;;;1.50;;
37411;SDS011;23278;52.110;6.050;2024-02-16T05:20:37;2.72;;;1.13;;
37411;SDS011;23278;52.110;6.050;2024-02-16T05:23:03;3.38;;;1.38;;
37411;SDS011;23278;52.110;6.050;2024-02-16T05:25:29;4.35;;;1.67;;
37411;SDS011;23278;52.110;6.050;2024-02-16T05:27:55;5.68;;;1.52;;
37411;SDS011;23278;52.110;6.050;2024-02-16T05:30:21;3.08;;;1.42;;
37411;SDS011;23278;52.110;6.050;2024-02-16T05:32:47;3.58;;;1.33;;
37411;SDS011;23278;52.110;6.050;2024-02-16T05:35:14;2.88;;;1.58;;
37411;SDS011;23278;52.110;6.050;2024-02-16T05:37:42;3.30;;;1.88;;
37411;SDS011;23278;52.110;6.050;2024-02-16T05:40:12;3.90;;;1.75;;
37411;SDS011;23278;52.110;6.050;2024-02-16T05:42:47;2.65;;;1.50;;
37411;SDS011;23278;52.110;6.050;2024-02-16T05:45:13;3.72;;;1.20;;
37411;SDS011;23278;52.110;6.050;2024-02-16T05:47:41;2.58;;;1.52;;
37411;SDS011;23278;52.110;6.050;2024-02-16T05:50:08;3.88;;;1.80;;
37411;SDS011;23278;52.110;6.050;2024-02-16T05:52:34;4.45;;;1.40;;
37411;SDS011;23278;52.110;6.050;2024-02-16T05:55:00;2.70;;;1.27;;
37411;SDS011;23278;52.110;6.050;2024-02-16T05:57:26;3.90;;;1.60;;
37411;SDS011;23278;52.110;6.050;2024-02-16T05:59:52;3.47;;;1.52;;
37411;SDS011;23278;52.110;6.050;2024-02-16T06:02:18;5.15;;;2.72;;
37411;SDS011;23278;52.110;6.050;2024-02-16T06:04:44;3.17;;;1.52;;
37411;SDS011;23278;52.110;6.050;2024-02-16T06:07:09;3.85;;;1.42;;
37411;SDS011;23278;52.110;6.050;2024-02-16T06:09:36;4.07;;;2.22;;
37411;SDS011;23278;52.110;6.050;2024-02-16T06:12:03;4.55;;;1.50;;
37411;SDS011;23278;52.110;6.050;2024-02-16T06:14:30;3.85;;;1.30;;
37411;SDS011;23278;52.110;6.050;2024-02-16T06:16:56;3.22;;;1.60;;
37411;SDS011;23278;52.110;6.050;2024-02-16T06:19:23;2.67;;;1.30;;
37411;SDS011;23278;52.110;6.050;2024-02-16T06:21:49;4.07;;;1.83;;
37411;SDS011;23278;52.110;6.050;2024-02-16T06:24:14;3.13;;;1.38;;
37411;SDS011;23278;52.110;6.050;2024-02-16T06:26:40;5.20;;;2.10;;
37411;SDS011;23278;52.110;6.050;2024-02-16T06:29:07;10.18;;;1.50;;
37411;SDS011;23278;52.110;6.050;2024-02-16T06:31:34;4.10;;;1.88;;
37411;SDS011;23278;52.110;6.050;2024-02-16T06:33:59;4.88;;;1.67;;
37411;SDS011;23278;52.110;6.050;2024-02-16T06:36:25;3.20;;;1.48;;
37411;SDS011;23278;52.110;6.050;2024-02-16T06:38:52;3.20;;;1.40;;
37411;SDS011;23278;52.110;6.050;2024-02-16T06:41:17;4.63;;;1.33;;
37411;SDS011;23278;52.110;6.050;2024-02-16T06:43:43;5.72;;;1.90;;
37411;SDS011;23278;52.110;6.050;2024-02-16T06:46:09;4.15;;;1.80;;
37411;SDS011;23278;52.110;6.050;2024-02-16T06:48:35;5.13;;;1.90;;
37411;SDS011;23278;52.110;6.050;2024-02-16T06:51:01;2.90;;;2.08;;
37411;SDS011;23278;52.110;6.050;2024-02-16T06:53:27;5.40;;;2.33;;
37411;SDS011;23278;52.110;6.050;2024-02-16T06:55:53;4.30;;;2.10;;
37411;SDS011;23278;52.110;6.050;2024-02-16T06:58:19;6.75;;;1.95;;
37411;SDS011;23278;52.110;6.050;2024-02-16T07:00:45;3.70;;;2.17;;
37411;SDS011;23278;52.110;6.050;2024-02-16T07:03:12;2.70;;;1.38;;
37411;SDS011;23278;52.110;6.050;2024-02-16T07:05:38;3.40;;;2.00;;
37411;SDS011;23278;52.110;6.050;2024-02-16T07:08:05;4.22;;;2.33;;
37411;SDS011;23278;52.110;6.050;2024-02-16T07:10:33;2.75;;;1.45;;
37411;SDS011;23278;52.110;6.050;2024-02-16T07:12:59;6.55;;;2.58;;
37411;SDS011;23278;52.110;6.050;2024-02-16T07:15:25;3.42;;;1.40;;
37411;SDS011;23278;52.110;6.050;2024-02-16T07:17:52;3.88;;;1.65;;
37411;SDS011;23278;52.110;6.050;2024-02-16T07:20:18;2.63;;;1.23;;
37411;SDS011;23278;52.110;6.050;2024-02-16T07:22:44;4.22;;;2.00;;
37411;SDS011;23278;52.110;6.050;2024-02-16T07:25:12;6.57;;;2.05;;
37411;SDS011;23278;52.110;6.050;2024-02-16T07:27:38;3.47;;;1.80;;
37411;SDS011;23278;52.110;6.050;2024-02-16T07:30:04;3.55;;;1.90;;
37411;SDS011;23278;52.110;6.050;2024-02-16T07:32:30;4.13;;;1.90;;
37411;SDS011;23278;52.110;6.050;2024-02-16T07:34:56;5.13;;;2.13;;
37411;SDS011;23278;52.110;6.050;2024-02-16T07:37:22;3.83;;;2.05;;
37411;SDS011;23278;52.110;6.050;2024-02-16T07:39:48;3.13;;;1.65;;
37411;SDS011;23278;52.110;6.050;2024-02-16T07:42:14;5.38;;;1.70;;
37411;SDS011;23278;52.110;6.050;2024-02-16T07:44:41;5.05;;;2.03;;
37411;SDS011;23278;52.110;6.050;2024-02-16T07:47:07;2.58;;;1.52;;
37411;SDS011;23278;52.110;6.050;2024-02-16T07:49:33;5.00;;;2.55;;
37411;SDS011;23278;52.110;6.050;2024-02-16T07:51:59;6.45;;;2.13;;
37411;SDS011;23278;52.110;6.050;2024-02-16T07:54:25;3.35;;;1.77;;
37411;SDS011;23278;52.110;6.050;2024-02-16T07:56:50;5.97;;;2.13;;
37411;SDS011;23278;52.110;6.050;2024-02-16T07:59:16;3.25;;;2.08;;
37411;SDS011;23278;52.110;6.050;2024-02-16T08:01:44;2.95;;;1.60;;
37411;SDS011;23278;52.110;6.050;2024-02-16T08:04:10;4.50;;;2.15;;
37411;SDS011;23278;52.110;6.050;2024-02-16T08:06:36;3.13;;;1.75;;
37411;SDS011;23278;52.110;6.050;2024-02-16T08:09:02;4.57;;;1.98;;
37411;SDS011;23278;52.110;6.050;2024-02-16T08:11:28;2.20;;;1.40;;
37411;SDS011;23278;52.110;6.050;2024-02-16T08:13:54;6.22;;;2.58;;
37411;SDS011;23278;52.110;6.050;2024-02-16T08:16:21;4.20;;;1.70;;
37411;SDS011;23278;52.110;6.050;2024-02-16T08:18:46;3.80;;;1.85;;
37411;SDS011;23278;52.110;6.050;2024-02-16T08:21:12;4.53;;;2.03;;
37411;SDS011;23278;52.110;6.050;2024-02-16T08:23:38;5.72;;;2.78;;
37411;SDS011;23278;52.110;6.050;2024-02-16T08:26:04;5.05;;;2.22;;
37411;SDS011;23278;52.110;6.050;2024-02-16T08:28:33;5.88;;;2.45;;
37411;SDS011;23278;52.110;6.050;2024-02-16T08:30:58;4.40;;;2.05;;
37411;SDS011;23278;52.110;6.050;2024-02-16T08:33:24;4.35;;;2.03;;
37411;SDS011;23278;52.110;6.050;2024-02-16T08:35:50;4.82;;;2.40;;
37411;SDS011;23278;52.110;6.050;2024-02-16T08:38:16;3.67;;;1.63;;
37411;SDS011;23278;52.110;6.050;2024-02-16T08:40:42;2.40;;;1.55;;
37411;SDS011;23278;52.110;6.050;2024-02-16T08:43:08;4.82;;;2.45;;
37411;SDS011;23278;52.110;6.050;2024-02-16T08:45:34;3.75;;;2.22;;
37411;SDS011;23278;52.110;6.050;2024-02-16T08:48:00;4.72;;;2.38;;
37411;SDS011;23278;52.110;6.050;2024-02-16T08:50:29;4.43;;;2.20;;
37411;SDS011;23278;52.110;6.050;2024-02-16T08:52:55;5.60;;;2.58;;
37411;SDS011;23278;52.110;6.050;2024-02-16T08:55:21;3.95;;;1.80;;
37411;SDS011;23278;52.110;6.050;2024-02-16T08:57:47;4.50;;;2.45;;
37411;SDS011;23278;52.110;6.050;2024-02-16T09:00:13;6.35;;;2.45;;
37411;SDS011;23278;52.110;6.050;2024-02-16T09:02:40;5.38;;;2.03;;
37411;SDS011;23278;52.110;6.050;2024-02-16T09:05:06;3.97;;;2.25;;
37411;SDS011;23278;52.110;6.050;2024-02-16T09:07:35;3.05;;;2.70;;
37411;SDS011;23278;52.110;6.050;2024-02-16T09:10:01;5.50;;;2.50;;
37411;SDS011;23278;52.110;6.050;2024-02-16T09:12:27;3.20;;;2.20;;
37411;SDS011;23278;52.110;6.050;2024-02-16T09:14:53;5.40;;;2.28;;
37411;SDS011;23278;52.110;6.050;2024-02-16T09:17:18;6.22;;;2.60;;
37411;SDS011;23278;52.110;6.050;2024-02-16T09:19:45;5.50;;;2.13;;
37411;SDS011;23278;52.110;6.050;2024-02-16T09:22:11;2.85;;;1.88;;
37411;SDS011;23278;52.110;6.050;2024-02-16T09:24:37;5.20;;;2.05;;
37411;SDS011;23278;52.110;6.050;2024-02-16T09:27:03;5.28;;;2.25;;
37411;SDS011;23278;52.110;6.050;2024-02-16T09:29:30;5.72;;;3.15;;
37411;SDS011;23278;52.110;6.050;2024-02-16T09:31:56;4.28;;;2.72;;
37411;SDS011;23278;52.110;6.050;2024-02-16T09:34:22;6.65;;;2.30;;
37411;SDS011;23278;52.110;6.050;2024-02-16T09:36:48;5.95;;;2.60;;
37411;SDS011;23278;52.110;6.050;2024-02-16T09:39:14;7.97;;;3.13;;
37411;SDS011;23278;52.110;6.050;2024-02-16T09:41:43;3.25;;;2.38;;
37411;SDS011;23278;52.110;6.050;2024-02-16T09:44:16;3.83;;;2.55;;
37411;SDS011;23278;52.110;6.050;2024-02-16T09:46:43;6.95;;;2.72;;
37411;SDS011;23278;52.110;6.050;2024-02-16T09:49:09;4.88;;;2.47;;
37411;SDS011;23278;52.110;6.050;2024-02-16T09:51:35;5.45;;;2.65;;
37411;SDS011;23278;52.110;6.050;2024-02-16T09:54:02;3.42;;;2.28;;
37411;SDS011;23278;52.110;6.050;2024-02-16T09:56:28;3.90;;;1.90;;
37411;SDS011;23278;52.110;6.050;2024-02-16T09:58:54;5.82;;;2.53;;
37411;SDS011;23278;52.110;6.050;2024-02-16T10:01:21;4.85;;;2.35;;
37411;SDS011;23278;52.110;6.050;2024-02-16T10:03:48;4.93;;;2.90;;
37411;SDS011;23278;52.110;6.050;2024-02-16T10:06:15;8.05;;;2.60;;
37411;SDS011;23278;52.110;6.050;2024-02-16T10:08:48;5.72;;;2.55;;
37411;SDS011;23278;52.110;6.050;2024-02-16T10:11:19;6.10;;;3.03;;
37411;SDS011;23278;52.110;6.050;2024-02-16T10:13:59;5.03;;;2.80;;
37411;SDS011;23278;52.110;6.050;2024-02-16T10:16:27;4.43;;;3.13;;
37411;SDS011;23278;52.110;6.050;2024-02-16T10:18:54;5.60;;;2.92;;
37411;SDS011;23278;52.110;6.050;2024-02-16T10:21:30;6.35;;;2.95;;
37411;SDS011;23278;52.110;6.050;2024-02-16T10:24:00;6.63;;;3.33;;
37411;SDS011;23278;52.110;6.050;2024-02-16T10:26:34;9.45;;;3.38;;
37411;SDS011;23278;52.110;6.050;2024-02-16T10:29:04;6.60;;;3.08;;
37411;SDS011;23278;52.110;6.050;2024-02-16T10:31:34;7.63;;;3.05;;
37411;SDS011;23278;52.110;6.050;2024-02-16T10:34:01;7.93;;;3.42;;
37411;SDS011;23278;52.110;6.050;2024-02-16T10:36:34;4.43;;;2.92;;
37411;SDS011;23278;52.110;6.050;2024-02-16T10:39:02;4.40;;;2.93;;
37411;SDS011;23278;52.110;6.050;2024-02-16T10:41:40;6.13;;;2.30;;
37411;SDS011;23278;52.110;6.050;2024-02-16T10:44:09;7.13;;;2.90;;
37411;SDS011;23278;52.110;6.050;2024-02-16T10:46:35;7.35;;;3.42;;
37411;SDS011;23278;52.110;6.050;2024-02-16T10:49:02;5.50;;;3.40;;
37411;SDS011;23278;52.110;6.050;2024-02-16T10:54:05;4.90;;;3.60;;
37411;SDS011;23278;52.110;6.050;2024-02-16T10:56:34;7.18;;;3.80;;
37411;SDS011;23278;52.110;6.050;2024-02-16T10:59:04;6.70;;;3.55;;
37411;SDS011;23278;52.110;6.050;2024-02-16T11:01:38;5.53;;;3.15;;
37411;SDS011;23278;52.110;6.050;2024-02-16T11:04:06;5.38;;;2.65;;
37411;SDS011;23278;52.110;6.050;2024-02-16T11:06:48;7.22;;;3.97;;
37411;SDS011;23278;52.110;6.050;2024-02-16T11:09:29;4.95;;;4.22;;
37411;SDS011;23278;52.110;6.050;2024-02-16T11:12:00;8.07;;;4.18;;
37411;SDS011;23278;52.110;6.050;2024-02-16T11:14:34;5.82;;;3.70;;
37411;SDS011;23278;52.110;6.050;2024-02-16T11:17:11;4.43;;;3.67;;
37411;SDS011;23278;52.110;6.050;2024-02-16T11:19:45;7.30;;;4.45;;
37411;SDS011;23278;52.110;6.050;2024-02-16T11:22:19;7.72;;;4.18;;
37411;SDS011;23278;52.110;6.050;2024-02-16T11:24:49;7.10;;;4.35;;
37411;SDS011;23278;52.110;6.050;2024-02-16T11:27:27;6.07;;;4.32;;
37411;SDS011;23278;52.110;6.050;2024-02-16T11:34:26;8.90;;;5.47;;
37411;SDS011;23278;52.110;6.050;2024-02-16T11:36:53;9.82;;;6.00;;
37411;SDS011;23278;52.110;6.050;2024-02-16T11:39:20;12.23;;;7.45;;
37411;SDS011;23278;52.110;6.050;2024-02-16T11:41:47;11.57;;;6.90;;
37411;SDS011;23278;52.110;6.050;2024-02-16T11:44:13;8.82;;;7.93;;
37411;SDS011;23278;52.110;6.050;2024-02-16T11:46:42;11.32;;;7.68;;
37411;SDS011;23278;52.110;6.050;2024-02-16T11:49:09;11.32;;;8.20;;
37411;SDS011;23278;52.110;6.050;2024-02-16T11:51:37;8.00;;;7.20;;
37411;SDS011;23278;52.110;6.050;2024-02-16T11:54:04;10.60;;;8.18;;
37411;SDS011;23278;52.110;6.050;2024-02-16T11:56:31;11.27;;;8.90;;
37411;SDS011;23278;52.110;6.050;2024-02-16T11:58:57;10.82;;;7.85;;
37411;SDS011;23278;52.110;6.050;2024-02-16T12:01:23;9.52;;;8.02;;
37411;SDS011;23278;52.110;6.050;2024-02-16T12:03:50;10.00;;;9.20;;
37411;SDS011;23278;52.110;6.050;2024-02-16T12:06:19;8.95;;;8.05;;
37411;SDS011;23278;52.110;6.050;2024-02-16T12:08:49;8.50;;;7.65;;
37411;SDS011;23278;52.110;6.050;2024-02-16T12:11:17;10.55;;;8.15;;
37411;SDS011;23278;52.110;6.050;2024-02-16T12:13:44;10.90;;;8.52;;
37411;SDS011;23278;52.110;6.050;2024-02-16T12:16:10;8.60;;;7.70;;
37411;SDS011;23278;52.110;6.050;2024-02-16T12:18:36;10.60;;;9.50;;
37411;SDS011;23278;52.110;6.050;2024-02-16T12:21:02;11.52;;;8.95;;
37411;SDS011;23278;52.110;6.050;2024-02-16T12:23:33;9.15;;;8.20;;
37411;SDS011;23278;52.110;6.050;2024-02-16T12:25:59;8.82;;;7.78;;
37411;SDS011;23278;52.110;6.050;2024-02-16T12:28:27;9.18;;;7.18;;
37411;SDS011;23278;52.110;6.050;2024-02-16T12:30:54;7.72;;;7.03;;
37411;SDS011;23278;52.110;6.050;2024-02-16T12:33:21;8.55;;;7.65;;
37411;SDS011;23278;52.110;6.050;2024-02-16T12:35:48;8.85;;;7.95;;
37411;SDS011;23278;52.110;6.050;2024-02-16T12:38:14;9.25;;;8.35;;
37411;SDS011;23278;52.110;6.050;2024-02-16T12:40:48;10.15;;;7.80;;
37411;SDS011;23278;52.110;6.050;2024-02-16T12:43:15;8.25;;;7.32;;
37411;SDS011;23278;52.110;6.050;2024-02-16T12:45:41;8.38;;;7.68;;
37411;SDS011;23278;52.110;6.050;2024-02-16T12:48:08;9.68;;;8.48;;
37411;SDS011;23278;52.110;6.050;2024-02-16T12:50:41;8.93;;;8.02;;
37411;SDS011;23278;52.110;6.050;2024-02-16T12:53:07;9.57;;;7.85;;
37411;SDS011;23278;52.110;6.050;2024-02-16T12:55:33;9.82;;;8.88;;
37411;SDS011;23278;52.110;6.050;2024-02-16T12:57:59;9.15;;;8.25;;
37411;SDS011;23278;52.110;6.050;2024-02-16T13:00:25;8.88;;;8.00;;
37411;SDS011;23278;52.110;6.050;2024-02-16T13:02:51;9.35;;;8.35;;
37411;SDS011;23278;52.110;6.050;2024-02-16T13:05:17;9.10;;;8.00;;
37411;SDS011;23278;52.110;6.050;2024-02-16T13:07:44;11.85;;;8.10;;
37411;SDS011;23278;52.110;6.050;2024-02-16T13:10:09;8.73;;;7.80;;
37411;SDS011;23278;52.110;6.050;2024-02-16T13:12:36;9.07;;;8.18;;
37411;SDS011;23278;52.110;6.050;2024-02-16T13:15:03;10.13;;;9.23;;
37411;SDS011;23278;52.110;6.050;2024-02-16T13:17:33;10.30;;;9.43;;
37411;SDS011;23278;52.110;6.050;2024-02-16T13:20:00;9.30;;;8.43;;
37411;SDS011;23278;52.110;6.050;2024-02-16T13:22:38;9.07;;;8.07;;
37411;SDS011;23278;52.110;6.050;2024-02-16T13:25:04;9.82;;;8.25;;
37411;SDS011;23278;52.110;6.050;2024-02-16T13:27:32;9.68;;;8.60;;
37411;SDS011;23278;52.110;6.050;2024-02-16T13:29:59;9.73;;;8.73;;
37411;SDS011;23278;52.110;6.050;2024-02-16T13:32:25;9.98;;;9.15;;
37411;SDS011;23278;52.110;6.050;2024-02-16T13:34:52;10.18;;;9.20;;
37411;SDS011;23278;52.110;6.050;2024-02-16T13:37:17;9.27;;;8.43;;
37411;SDS011;23278;52.110;6.050;2024-02-16T13:39:43;11.27;;;8.65;;
37411;SDS011;23278;52.110;6.050;2024-02-16T13:42:10;10.20;;;8.93;;
37411;SDS011;23278;52.110;6.050;2024-02-16T13:44:37;10.05;;;9.05;;
37411;SDS011;23278;52.110;6.050;2024-02-16T13:47:03;9.65;;;8.75;;
37411;SDS011;23278;52.110;6.050;2024-02-16T13:49:29;9.32;;;8.43;;
37411;SDS011;23278;52.110;6.050;2024-02-16T13:51:55;9.65;;;8.75;;
37411;SDS011;23278;52.110;6.050;2024-02-16T13:54:27;9.65;;;8.65;;
37411;SDS011;23278;52.110;6.050;2024-02-16T13:56:53;10.02;;;7.78;;
37411;SDS011;23278;52.110;6.050;2024-02-16T13:59:19;6.88;;;6.18;;
37411;SDS011;23278;52.110;6.050;2024-02-16T14:01:45;7.00;;;5.60;;
37411;SDS011;23278;52.110;6.050;2024-02-16T14:04:11;5.07;;;4.57;;
37411;SDS011;23278;52.110;6.050;2024-02-16T14:06:38;6.88;;;5.28;;
37411;SDS011;23278;52.110;6.050;2024-02-16T14:09:04;6.32;;;5.03;;
37411;SDS011;23278;52.110;6.050;2024-02-16T14:11:34;6.20;;;5.20;;
37411;SDS011;23278;52.110;6.050;2024-02-16T14:14:01;4.57;;;4.18;;
37411;SDS011;23278;52.110;6.050;2024-02-16T14:16:27;6.90;;;4.63;;
37411;SDS011;23278;52.110;6.050;2024-02-16T14:18:53;4.13;;;3.78;;
37411;SDS011;23278;52.110;6.050;2024-02-16T14:21:19;3.13;;;2.83;;
37411;SDS011;23278;52.110;6.050;2024-02-16T14:23:45;4.30;;;2.92;;
37411;SDS011;23278;52.110;6.050;2024-02-16T14:26:11;3.42;;;2.83;;
37411;SDS011;23278;52.110;6.050;2024-02-16T14:28:37;3.28;;;2.67;;
37411;SDS011;23278;52.110;6.050;2024-02-16T14:31:03;3.95;;;3.38;;
37411;SDS011;23278;52.110;6.050;2024-02-16T14:33:29;2.92;;;2.67;;
37411;SDS011;23278;52.110;6.050;2024-02-16T14:35:55;2.65;;;2.40;;
37411;SDS011;23278;52.110;6.050;2024-02-16T14:38:21;2.60;;;2.38;;
37411;SDS011;23278;52.110;6.050;2024-02-16T14:40:47;3.00;;;2.50;;
37411;SDS011;23278;52.110;6.050;2024-02-16T14:43:13;4.03;;;2.90;;
37411;SDS011;23278;52.110;6.050;2024-02-16T14:45:39;2.50;;;2.13;;
37411;SDS011;23278;52.110;6.050;2024-02-16T14:48:05;3.42;;;2.78;;
37411;SDS011;23278;52.110;6.050;2024-02-16T14:50:31;4.13;;;2.78;;
37411;SDS011;23278;52.110;6.050;2024-02-16T14:52:57;3.25;;;1.98;;